sensor_id;sensor_type;location;lat;lon;timestamp;temperature;humidity
12771;DHT22;6449;47.666;9.160;2023-08-24T00:03:09;23.40;99.90
12771;DHT22;6449;47.666;9.160;2023-08-24T00:08:03;23.50;99.90
12771;DHT22;6449;47.666;9.160;2023-08-24T00:13:00;23.60;99.90
12771;DHT22;6449;47.666;9.160;2023-08-24T00:17:54;23.40;99.90
12771;DHT22;6449;47.666;9.160;2023-08-24T00:22:49;23.20;99.90
12771;DHT22;6449;47.666;9.160;2023-08-24T00:27:42;23.10;99.90
12771;DHT22;6449;47.666;9.160;2023-08-24T00:32:36;23.20;99.90
12771;DHT22;6449;47.666;9.160;2023-08-24T00:37:30;23.10;99.90
12771;DHT22;6449;47.666;9.160;2023-08-24T00:42:25;23.00;99.90
12771;DHT22;6449;47.666;9.160;2023-08-24T00:47:18;22.70;99.90
12771;DHT22;6449;47.666;9.160;2023-08-24T00:52:13;23.00;99.90
12771;DHT22;6449;47.666;9.160;2023-08-24T00:57:07;23.20;99.90
12771;DHT22;6449;47.666;9.160;2023-08-24T01:02:02;23.10;99.90
12771;DHT22;6449;47.666;9.160;2023-08-24T01:06:55;23.00;99.90
12771;DHT22;6449;47.666;9.160;2023-08-24T01:11:57;22.80;99.90
12771;DHT22;6449;47.666;9.160;2023-08-24T01:16:58;22.80;99.90
12771;DHT22;6449;47.666;9.160;2023-08-24T01:22:00;22.60;99.90
12771;DHT22;6449;47.666;9.160;2023-08-24T01:26:57;22.50;99.90
12771;DHT22;6449;47.666;9.160;2023-08-24T01:31:51;22.60;99.90
12771;DHT22;6449;47.666;9.160;2023-08-24T01:36:45;22.70;99.90
12771;DHT22;6449;47.666;9.160;2023-08-24T01:41:40;22.80;99.90
12771;DHT22;6449;47.666;9.160;2023-08-24T01:46:38;22.60;99.90
12771;DHT22;6449;47.666;9.160;2023-08-24T01:51:34;22.40;99.90
12771;DHT22;6449;47.666;9.160;2023-08-24T01:56:27;22.40;99.90
12771;DHT22;6449;47.666;9.160;2023-08-24T02:01:21;22.50;99.90
12771;DHT22;6449;47.666;9.160;2023-08-24T02:06:16;22.50;99.90
12771;DHT22;6449;47.666;9.160;2023-08-24T02:11:09;22.40;99.90
12771;DHT22;6449;47.666;9.160;2023-08-24T02:16:03;22.30;99.90
12771;DHT22;6449;47.666;9.160;2023-08-24T02:20:58;22.40;99.90
12771;DHT22;6449;47.666;9.160;2023-08-24T02:25:52;22.40;99.90
12771;DHT22;6449;47.666;9.160;2023-08-24T02:30:46;22.10;99.90
12771;DHT22;6449;47.666;9.160;2023-08-24T02:35:39;21.90;99.90
12771;DHT22;6449;47.666;9.160;2023-08-24T02:40:33;21.80;99.90
12771;DHT22;6449;47.666;9.160;2023-08-24T02:45:27;21.90;99.90
12771;DHT22;6449;47.666;9.160;2023-08-24T02:50:21;21.90;99.90
12771;DHT22;6449;47.666;9.160;2023-08-24T02:55:14;22.00;99.90
12771;DHT22;6449;47.666;9.160;2023-08-24T03:00:09;22.10;99.90
12771;DHT22;6449;47.666;9.160;2023-08-24T03:05:07;22.10;99.90
12771;DHT22;6449;47.666;9.160;2023-08-24T03:10:01;22.10;99.90
12771;DHT22;6449;47.666;9.160;2023-08-24T03:14:55;21.70;99.90
12771;DHT22;6449;47.666;9.160;2023-08-24T03:19:49;21.60;99.90
12771;DHT22;6449;47.666;9.160;2023-08-24T03:24:43;21.60;99.90
12771;DHT22;6449;47.666;9.160;2023-08-24T03:29:37;21.50;99.90
12771;DHT22;6449;47.666;9.160;2023-08-24T03:34:30;21.60;99.90
12771;DHT22;6449;47.666;9.160;2023-08-24T03:39:23;21.40;99.90
12771;DHT22;6449;47.666;9.160;2023-08-24T03:44:20;21.50;99.90
12771;DHT22;6449;47.666;9.160;2023-08-24T03:49:14;21.60;99.90
12771;DHT22;6449;47.666;9.160;2023-08-24T03:54:07;21.70;99.90
12771;DHT22;6449;47.666;9.160;2023-08-24T03:59:00;21.90;99.90
12771;DHT22;6449;47.666;9.160;2023-08-24T04:03:55;22.00;99.90
12771;DHT22;6449;47.666;9.160;2023-08-24T04:08:52;21.70;99.90
12771;DHT22;6449;47.666;9.160;2023-08-24T04:13:46;21.50;99.90
12771;DHT22;6449;47.666;9.160;2023-08-24T04:18:39;21.60;99.90
12771;DHT22;6449;47.666;9.160;2023-08-24T04:23:37;21.60;99.90
12771;DHT22;6449;47.666;9.160;2023-08-24T04:28:33;21.50;99.90
12771;DHT22;6449;47.666;9.160;2023-08-24T04:33:28;21.50;99.90
12771;DHT22;6449;47.666;9.160;2023-08-24T04:38:22;21.10;99.90
12771;DHT22;6449;47.666;9.160;2023-08-24T04:43:16;21.20;99.90
12771;DHT22;6449;47.666;9.160;2023-08-24T04:48:12;21.30;99.90
12771;DHT22;6449;47.666;9.160;2023-08-24T04:53:05;21.10;99.90
12771;DHT22;6449;47.666;9.160;2023-08-24T04:57:59;20.60;99.90
12771;DHT22;6449;47.666;9.160;2023-08-24T05:02:53;20.80;99.90
12771;DHT22;6449;47.666;9.160;2023-08-24T05:07:47;21.10;99.90
12771;DHT22;6449;47.666;9.160;2023-08-24T05:12:40;21.50;99.90
12771;DHT22;6449;47.666;9.160;2023-08-24T05:17:34;21.10;99.90
12771;DHT22;6449;47.666;9.160;2023-08-24T05:22:28;20.90;99.90
12771;DHT22;6449;47.666;9.160;2023-08-24T05:27:22;20.80;99.90
12771;DHT22;6449;47.666;9.160;2023-08-24T05:32:15;21.10;99.90
12771;DHT22;6449;47.666;9.160;2023-08-24T05:37:08;21.30;99.90
12771;DHT22;6449;47.666;9.160;2023-08-24T05:42:03;21.40;99.90
12771;DHT22;6449;47.666;9.160;2023-08-24T05:46:57;21.50;99.90
12771;DHT22;6449;47.666;9.160;2023-08-24T05:51:51;21.70;99.90
12771;DHT22;6449;47.666;9.160;2023-08-24T05:56:45;21.60;99.90
12771;DHT22;6449;47.666;9.160;2023-08-24T06:01:40;21.60;99.90
12771;DHT22;6449;47.666;9.160;2023-08-24T06:06:34;21.80;99.90
12771;DHT22;6449;47.666;9.160;2023-08-24T06:11:27;21.90;99.90
12771;DHT22;6449;47.666;9.160;2023-08-24T06:16:20;22.00;99.90
12771;DHT22;6449;47.666;9.160;2023-08-24T06:21:15;22.10;99.90
12771;DHT22;6449;47.666;9.160;2023-08-24T06:26:12;22.40;99.90
12771;DHT22;6449;47.666;9.160;2023-08-24T06:31:05;22.40;99.90
12771;DHT22;6449;47.666;9.160;2023-08-24T06:36:00;22.50;99.90
12771;DHT22;6449;47.666;9.160;2023-08-24T06:40:55;22.60;99.90
12771;DHT22;6449;47.666;9.160;2023-08-24T06:45:50;22.70;99.90
12771;DHT22;6449;47.666;9.160;2023-08-24T06:50:48;22.80;99.90
12771;DHT22;6449;47.666;9.160;2023-08-24T06:55:42;22.80;99.90
12771;DHT22;6449;47.666;9.160;2023-08-24T07:00:36;22.90;99.90
12771;DHT22;6449;47.666;9.160;2023-08-24T07:05:31;23.00;99.90
12771;DHT22;6449;47.666;9.160;2023-08-24T07:10:26;23.10;99.90
12771;DHT22;6449;47.666;9.160;2023-08-24T07:15:20;23.30;99.90
12771;DHT22;6449;47.666;9.160;2023-08-24T07:20:14;23.40;99.90
12771;DHT22;6449;47.666;9.160;2023-08-24T07:25:08;23.50;99.90
12771;DHT22;6449;47.666;9.160;2023-08-24T07:30:04;23.70;99.90
12771;DHT22;6449;47.666;9.160;2023-08-24T07:35:15;23.80;99.90
12771;DHT22;6449;47.666;9.160;2023-08-24T07:40:09;23.80;99.90
12771;DHT22;6449;47.666;9.160;2023-08-24T07:45:04;23.90;99.90
12771;DHT22;6449;47.666;9.160;2023-08-24T07:49:59;24.00;99.90
12771;DHT22;6449;47.666;9.160;2023-08-24T07:54:54;24.00;99.90
12771;DHT22;6449;47.666;9.160;2023-08-24T07:59:51;24.20;99.90
12771;DHT22;6449;47.666;9.160;2023-08-24T08:04:47;24.60;99.90
12771;DHT22;6449;47.666;9.160;2023-08-24T08:09:41;25.00;99.90
12771;DHT22;6449;47.666;9.160;2023-08-24T08:14:36;24.90;99.90
12771;DHT22;6449;47.666;9.160;2023-08-24T08:19:30;24.70;99.90
12771;DHT22;6449;47.666;9.160;2023-08-24T08:24:26;24.80;99.90
12771;DHT22;6449;47.666;9.160;2023-08-24T08:29:19;25.10;99.90
12771;DHT22;6449;47.666;9.160;2023-08-24T08:34:15;25.40;99.90
12771;DHT22;6449;47.666;9.160;2023-08-24T08:39:09;25.60;99.90
12771;DHT22;6449;47.666;9.160;2023-08-24T08:44:05;25.70;99.90
12771;DHT22;6449;47.666;9.160;2023-08-24T08:49:00;26.00;99.90
12771;DHT22;6449;47.666;9.160;2023-08-24T08:53:56;26.40;99.90
12771;DHT22;6449;47.666;9.160;2023-08-24T08:58:50;26.40;99.90
12771;DHT22;6449;47.666;9.160;2023-08-24T09:03:46;26.30;99.90
12771;DHT22;6449;47.666;9.160;2023-08-24T09:08:41;26.50;99.90
12771;DHT22;6449;47.666;9.160;2023-08-24T09:13:36;26.80;99.90
12771;DHT22;6449;47.666;9.160;2023-08-24T09:18:35;26.90;99.90
12771;DHT22;6449;47.666;9.160;2023-08-24T09:23:29;26.70;99.90
12771;DHT22;6449;47.666;9.160;2023-08-24T09:28:23;26.70;99.90
12771;DHT22;6449;47.666;9.160;2023-08-24T09:33:19;26.70;99.90
12771;DHT22;6449;47.666;9.160;2023-08-24T09:38:17;26.80;99.90
12771;DHT22;6449;47.666;9.160;2023-08-24T09:43:12;26.60;99.90
12771;DHT22;6449;47.666;9.160;2023-08-24T09:48:06;26.50;99.90
12771;DHT22;6449;47.666;9.160;2023-08-24T09:53:02;26.20;99.90
12771;DHT22;6449;47.666;9.160;2023-08-24T09:57:57;26.30;99.90
12771;DHT22;6449;47.666;9.160;2023-08-24T10:02:53;26.70;99.90
12771;DHT22;6449;47.666;9.160;2023-08-24T10:07:51;27.00;99.90
12771;DHT22;6449;47.666;9.160;2023-08-24T10:18:01;27.60;99.90
12771;DHT22;6449;47.666;9.160;2023-08-24T10:22:56;28.00;99.90
12771;DHT22;6449;47.666;9.160;2023-08-24T10:27:58;28.20;99.90
12771;DHT22;6449;47.666;9.160;2023-08-24T10:32:56;28.30;99.90
12771;DHT22;6449;47.666;9.160;2023-08-24T10:37:52;28.50;99.90
12771;DHT22;6449;47.666;9.160;2023-08-24T10:42:46;28.80;99.90
12771;DHT22;6449;47.666;9.160;2023-08-24T10:47:46;29.00;99.90
12771;DHT22;6449;47.666;9.160;2023-08-24T10:52:43;28.90;99.90
12771;DHT22;6449;47.666;9.160;2023-08-24T10:57:38;29.00;99.90
12771;DHT22;6449;47.666;9.160;2023-08-24T11:02:43;29.10;99.90
12771;DHT22;6449;47.666;9.160;2023-08-24T11:07:48;29.20;99.90
12771;DHT22;6449;47.666;9.160;2023-08-24T11:13:08;29.30;99.90
12771;DHT22;6449;47.666;9.160;2023-08-24T11:18:19;29.40;99.90
12771;DHT22;6449;47.666;9.160;2023-08-24T11:23:15;29.60;99.90
12771;DHT22;6449;47.666;9.160;2023-08-24T11:28:09;29.70;99.90
12771;DHT22;6449;47.666;9.160;2023-08-24T11:33:03;29.80;99.90
12771;DHT22;6449;47.666;9.160;2023-08-24T11:37:58;29.80;99.90
12771;DHT22;6449;47.666;9.160;2023-08-24T11:42:53;29.80;99.90
12771;DHT22;6449;47.666;9.160;2023-08-24T11:47:47;29.80;99.90
12771;DHT22;6449;47.666;9.160;2023-08-24T11:52:41;29.80;99.90
12771;DHT22;6449;47.666;9.160;2023-08-24T11:57:37;29.70;99.90
12771;DHT22;6449;47.666;9.160;2023-08-24T12:02:30;29.90;99.90
12771;DHT22;6449;47.666;9.160;2023-08-24T12:07:24;29.90;99.90
12771;DHT22;6449;47.666;9.160;2023-08-24T12:12:22;30.00;99.90
12771;DHT22;6449;47.666;9.160;2023-08-24T12:17:17;30.10;99.90
12771;DHT22;6449;47.666;9.160;2023-08-24T12:22:13;30.10;99.90
12771;DHT22;6449;47.666;9.160;2023-08-24T12:27:06;30.00;99.90
12771;DHT22;6449;47.666;9.160;2023-08-24T12:32:01;30.00;99.90
12771;DHT22;6449;47.666;9.160;2023-08-24T12:36:56;29.90;99.90
12771;DHT22;6449;47.666;9.160;2023-08-24T12:41:50;29.80;99.90
12771;DHT22;6449;47.666;9.160;2023-08-24T12:46:43;29.70;99.90
12771;DHT22;6449;47.666;9.160;2023-08-24T12:51:37;29.50;99.90
12771;DHT22;6449;47.666;9.160;2023-08-24T12:56:32;29.40;99.90
12771;DHT22;6449;47.666;9.160;2023-08-24T13:01:27;29.20;99.90
12771;DHT22;6449;47.666;9.160;2023-08-24T13:06:20;29.20;99.90
12771;DHT22;6449;47.666;9.160;2023-08-24T13:11:15;29.30;99.90
12771;DHT22;6449;47.666;9.160;2023-08-24T13:16:10;29.40;99.90
12771;DHT22;6449;47.666;9.160;2023-08-24T13:21:04;29.50;99.90
12771;DHT22;6449;47.666;9.160;2023-08-24T13:25:57;29.40;99.90
12771;DHT22;6449;47.666;9.160;2023-08-24T13:30:51;29.50;99.90
12771;DHT22;6449;47.666;9.160;2023-08-24T13:35:46;29.40;99.90
12771;DHT22;6449;47.666;9.160;2023-08-24T13:40:40;29.30;99.90
12771;DHT22;6449;47.666;9.160;2023-08-24T13:45:33;29.30;99.90
12771;DHT22;6449;47.666;9.160;2023-08-24T13:50:27;29.30;99.90
12771;DHT22;6449;47.666;9.160;2023-08-24T13:55:22;29.30;99.90
12771;DHT22;6449;47.666;9.160;2023-08-24T14:00:16;29.40;99.90
12771;DHT22;6449;47.666;9.160;2023-08-24T14:05:10;29.40;99.90
12771;DHT22;6449;47.666;9.160;2023-08-24T14:10:05;29.40;99.90
12771;DHT22;6449;47.666;9.160;2023-08-24T14:15:01;29.40;99.90
12771;DHT22;6449;47.666;9.160;2023-08-24T14:19:55;29.50;99.90
12771;DHT22;6449;47.666;9.160;2023-08-24T14:24:48;29.40;99.90
12771;DHT22;6449;47.666;9.160;2023-08-24T14:29:42;29.30;99.90
12771;DHT22;6449;47.666;9.160;2023-08-24T14:34:36;29.40;99.90
12771;DHT22;6449;47.666;9.160;2023-08-24T14:39:30;29.40;99.90
12771;DHT22;6449;47.666;9.160;2023-08-24T14:44:23;29.50;99.90
12771;DHT22;6449;47.666;9.160;2023-08-24T14:49:17;29.50;99.90
12771;DHT22;6449;47.666;9.160;2023-08-24T14:54:12;29.50;99.90
12771;DHT22;6449;47.666;9.160;2023-08-24T14:59:07;29.60;99.90
12771;DHT22;6449;47.666;9.160;2023-08-24T15:04:00;29.60;99.90
12771;DHT22;6449;47.666;9.160;2023-08-24T15:08:54;29.60;99.90
12771;DHT22;6449;47.666;9.160;2023-08-24T15:13:49;29.60;99.90
12771;DHT22;6449;47.666;9.160;2023-08-24T15:18:42;29.60;99.90
12771;DHT22;6449;47.666;9.160;2023-08-24T15:23:36;29.60;99.90
12771;DHT22;6449;47.666;9.160;2023-08-24T15:28:35;29.60;99.90
12771;DHT22;6449;47.666;9.160;2023-08-24T15:33:31;29.50;99.90
12771;DHT22;6449;47.666;9.160;2023-08-24T15:38:25;29.50;99.90
12771;DHT22;6449;47.666;9.160;2023-08-24T15:43:19;29.40;99.90
12771;DHT22;6449;47.666;9.160;2023-08-24T15:48:13;29.30;99.90
12771;DHT22;6449;47.666;9.160;2023-08-24T15:53:08;29.30;99.90
12771;DHT22;6449;47.666;9.160;2023-08-24T15:58:02;29.30;99.90
12771;DHT22;6449;47.666;9.160;2023-08-24T16:02:56;29.40;99.90
12771;DHT22;6449;47.666;9.160;2023-08-24T16:07:51;29.40;99.90
12771;DHT22;6449;47.666;9.160;2023-08-24T16:12:47;29.40;99.90
12771;DHT22;6449;47.666;9.160;2023-08-24T16:17:41;29.40;99.90
12771;DHT22;6449;47.666;9.160;2023-08-24T16:22:35;29.30;99.90
12771;DHT22;6449;47.666;9.160;2023-08-24T16:27:29;29.30;99.90
12771;DHT22;6449;47.666;9.160;2023-08-24T16:32:24;29.10;99.90
12771;DHT22;6449;47.666;9.160;2023-08-24T16:37:17;29.10;99.90
12771;DHT22;6449;47.666;9.160;2023-08-24T16:42:10;29.10;99.90
12771;DHT22;6449;47.666;9.160;2023-08-24T16:47:04;29.00;99.90
12771;DHT22;6449;47.666;9.160;2023-08-24T16:51:59;29.00;99.90
12771;DHT22;6449;47.666;9.160;2023-08-24T16:56:52;29.00;99.90
12771;DHT22;6449;47.666;9.160;2023-08-24T17:01:46;28.90;99.90
12771;DHT22;6449;47.666;9.160;2023-08-24T17:06:39;28.90;99.90
12771;DHT22;6449;47.666;9.160;2023-08-24T17:11:34;28.90;99.90
12771;DHT22;6449;47.666;9.160;2023-08-24T17:16:27;28.80;99.90
12771;DHT22;6449;47.666;9.160;2023-08-24T17:21:20;28.80;99.90
12771;DHT22;6449;47.666;9.160;2023-08-24T17:26:14;28.70;99.90
12771;DHT22;6449;47.666;9.160;2023-08-24T17:31:09;28.60;99.90
12771;DHT22;6449;47.666;9.160;2023-08-24T17:36:03;28.60;99.90
12771;DHT22;6449;47.666;9.160;2023-08-24T17:41:00;28.60;99.90
12771;DHT22;6449;47.666;9.160;2023-08-24T17:45:54;28.60;99.90
12771;DHT22;6449;47.666;9.160;2023-08-24T17:50:53;28.30;99.90
12771;DHT22;6449;47.666;9.160;2023-08-24T17:55:52;28.10;99.90
12771;DHT22;6449;47.666;9.160;2023-08-24T18:00:45;28.10;99.90
12771;DHT22;6449;47.666;9.160;2023-08-24T18:05:39;28.00;99.90
12771;DHT22;6449;47.666;9.160;2023-08-24T18:10:34;27.80;99.90
12771;DHT22;6449;47.666;9.160;2023-08-24T18:15:30;27.80;99.90
12771;DHT22;6449;47.666;9.160;2023-08-24T18:20:25;27.80;99.90
12771;DHT22;6449;47.666;9.160;2023-08-24T18:25:19;27.80;99.90
12771;DHT22;6449;47.666;9.160;2023-08-24T18:30:14;27.80;99.90
12771;DHT22;6449;47.666;9.160;2023-08-24T18:35:08;27.90;99.90
12771;DHT22;6449;47.666;9.160;2023-08-24T18:40:01;27.60;99.90
12771;DHT22;6449;47.666;9.160;2023-08-24T18:44:58;27.50;99.90
12771;DHT22;6449;47.666;9.160;2023-08-24T18:49:53;27.40;99.90
12771;DHT22;6449;47.666;9.160;2023-08-24T18:54:46;26.40;99.90
12771;DHT22;6449;47.666;9.160;2023-08-24T18:59:40;25.80;99.90
12771;DHT22;6449;47.666;9.160;2023-08-24T19:04:34;25.60;99.90
12771;DHT22;6449;47.666;9.160;2023-08-24T19:09:29;25.60;99.90
12771;DHT22;6449;47.666;9.160;2023-08-24T19:14:22;25.50;99.90
12771;DHT22;6449;47.666;9.160;2023-08-24T19:19:16;25.60;99.90
12771;DHT22;6449;47.666;9.160;2023-08-24T19:24:09;25.10;99.90
12771;DHT22;6449;47.666;9.160;2023-08-24T19:29:04;24.80;99.90
12771;DHT22;6449;47.666;9.160;2023-08-24T19:33:58;24.70;99.90
12771;DHT22;6449;47.666;9.160;2023-08-24T19:38:52;24.50;99.90
12771;DHT22;6449;47.666;9.160;2023-08-24T19:43:45;24.20;99.90
12771;DHT22;6449;47.666;9.160;2023-08-24T19:48:40;24.20;99.90
12771;DHT22;6449;47.666;9.160;2023-08-24T19:53:33;23.90;99.90
12771;DHT22;6449;47.666;9.160;2023-08-24T19:58:27;24.10;99.90
12771;DHT22;6449;47.666;9.160;2023-08-24T20:03:21;24.20;99.90
12771;DHT22;6449;47.666;9.160;2023-08-24T20:08:16;24.30;99.90
12771;DHT22;6449;47.666;9.160;2023-08-24T20:13:09;24.50;99.90
12771;DHT22;6449;47.666;9.160;2023-08-24T20:18:03;24.70;99.90
12771;DHT22;6449;47.666;9.160;2023-08-24T20:22:57;24.40;99.90
12771;DHT22;6449;47.666;9.160;2023-08-24T20:27:51;23.90;99.90
12771;DHT22;6449;47.666;9.160;2023-08-24T20:32:48;23.90;99.90
12771;DHT22;6449;47.666;9.160;2023-08-24T20:37:41;23.50;99.90
12771;DHT22;6449;47.666;9.160;2023-08-24T20:42:34;23.30;99.90
12771;DHT22;6449;47.666;9.160;2023-08-24T20:47:29;23.50;99.90
12771;DHT22;6449;47.666;9.160;2023-08-24T20:52:23;23.70;99.90
12771;DHT22;6449;47.666;9.160;2023-08-24T20:57:16;23.90;99.90
12771;DHT22;6449;47.666;9.160;2023-08-24T21:02:10;23.90;99.90
12771;DHT22;6449;47.666;9.160;2023-08-24T21:07:09;23.80;99.90
12771;DHT22;6449;47.666;9.160;2023-08-24T21:12:02;23.80;99.90
12771;DHT22;6449;47.666;9.160;2023-08-24T21:16:56;23.90;99.90
12771;DHT22;6449;47.666;9.160;2023-08-24T21:21:51;24.00;99.90
12771;DHT22;6449;47.666;9.160;2023-08-24T21:26:46;24.10;99.90
12771;DHT22;6449;47.666;9.160;2023-08-24T21:31:39;24.20;99.90
12771;DHT22;6449;47.666;9.160;2023-08-24T21:36:33;24.10;99.90
12771;DHT22;6449;47.666;9.160;2023-08-24T21:41:26;24.00;99.90
12771;DHT22;6449;47.666;9.160;2023-08-24T21:46:21;23.90;99.90
12771;DHT22;6449;47.666;9.160;2023-08-24T21:51:15;23.90;99.90
12771;DHT22;6449;47.666;9.160;2023-08-24T21:56:09;23.70;99.90
12771;DHT22;6449;47.666;9.160;2023-08-24T22:01:03;23.60;99.90
12771;DHT22;6449;47.666;9.160;2023-08-24T22:06:00;23.60;99.90
12771;DHT22;6449;47.666;9.160;2023-08-24T22:10:55;23.50;99.90
12771;DHT22;6449;47.666;9.160;2023-08-24T22:15:48;23.40;99.90
12771;DHT22;6449;47.666;9.160;2023-08-24T22:20:50;23.40;99.90
12771;DHT22;6449;47.666;9.160;2023-08-24T22:25:45;23.40;99.90
12771;DHT22;6449;47.666;9.160;2023-08-24T22:30:40;23.50;99.90
12771;DHT22;6449;47.666;9.160;2023-08-24T22:35:34;23.40;99.90
12771;DHT22;6449;47.666;9.160;2023-08-24T22:40:27;23.40;99.90
12771;DHT22;6449;47.666;9.160;2023-08-24T22:45:24;23.30;99.90
12771;DHT22;6449;47.666;9.160;2023-08-24T22:50:29;23.00;99.90
12771;DHT22;6449;47.666;9.160;2023-08-24T22:55:22;22.80;99.90
12771;DHT22;6449;47.666;9.160;2023-08-24T23:00:16;22.80;99.90
12771;DHT22;6449;47.666;9.160;2023-08-24T23:05:11;22.80;99.90
12771;DHT22;6449;47.666;9.160;2023-08-24T23:10:06;22.70;99.90
12771;DHT22;6449;47.666;9.160;2023-08-24T23:15:00;22.40;99.90
12771;DHT22;6449;47.666;9.160;2023-08-24T23:19:54;22.10;99.90
12771;DHT22;6449;47.666;9.160;2023-08-24T23:24:49;21.90;99.90
12771;DHT22;6449;47.666;9.160;2023-08-24T23:29:43;21.90;99.90
12771;DHT22;6449;47.666;9.160;2023-08-24T23:34:38;22.00;99.90
12771;DHT22;6449;47.666;9.160;2023-08-24T23:39:32;21.90;99.90
12771;DHT22;6449;47.666;9.160;2023-08-24T23:44:27;21.70;99.90
12771;DHT22;6449;47.666;9.160;2023-08-24T23:49:20;21.50;99.90
12771;DHT22;6449;47.666;9.160;2023-08-24T23:54:13;21.30;99.90
12771;DHT22;6449;47.666;9.160;2023-08-24T23:59:07;21.40;99.90
